createdAt,value
2022-09-13T00:01:10.361Z,94477.19
2022-09-13T00:03:37.660Z,94474.09
2022-09-13T00:06:13.419Z,94469.84
2022-09-13T00:08:41.075Z,94490.06
2022-09-13T00:11:08.318Z,94467.47
2022-09-13T00:13:35.051Z,94476.47
2022-09-13T00:16:04.001Z,94458.88
2022-09-13T00:18:31.334Z,94458.56
2022-09-13T00:21:10.453Z,94458.09
2022-09-13T00:23:37.859Z,94458.91
2022-09-13T00:26:10.603Z,94436.38
2022-09-13T00:28:37.941Z,94455.06
2022-09-13T00:31:07.200Z,94450.00
2022-09-13T00:33:33.920Z,94451.16
2022-09-13T00:36:08.989Z,94431.75
2022-09-13T00:38:37.266Z,94439.06
2022-09-13T00:41:06.874Z,94432.09
2022-09-13T00:43:51.938Z,94443.72
2022-09-13T00:46:34.040Z,94433.63
2022-09-13T00:49:17.721Z,94445.72
2022-09-13T00:51:52.177Z,94418.53
2022-09-13T00:54:22.956Z,94403.78
2022-09-13T00:56:54.477Z,94415.81
2022-09-13T00:59:33.127Z,94431.69
2022-09-13T01:02:02.059Z,94417.84
2022-09-13T01:04:32.678Z,94427.72
2022-09-13T01:07:02.749Z,94419.09
2022-09-13T01:09:32.981Z,94420.31
2022-09-13T01:12:15.385Z,94411.13
2022-09-13T01:14:43.599Z,94416.81
2022-09-13T01:17:10.375Z,94410.69
2022-09-13T01:19:37.470Z,94413.31
2022-09-13T01:22:41.814Z,94417.97
2022-09-13T01:25:19.445Z,94398.06
2022-09-13T01:28:14.394Z,94400.78
2022-09-13T01:30:59.158Z,94400.66
2022-09-13T01:33:52.254Z,94376.47
2022-09-13T01:36:40.181Z,94369.91
2022-09-13T01:39:14.875Z,94374.75
2022-09-13T01:41:44.475Z,94374.78
2022-09-13T01:44:35.442Z,94372.78
2022-09-13T01:47:24.023Z,94377.91
2022-09-13T01:50:30.077Z,94369.34
2022-09-13T01:53:01.909Z,94365.84
2022-09-13T01:55:35.776Z,94369.72
2022-09-13T01:58:28.574Z,94367.31
2022-09-13T02:01:34.095Z,94383.59
2022-09-13T02:04:10.489Z,94377.38
2022-09-13T02:06:45.672Z,94395.75
2022-09-13T02:09:21.492Z,94378.13
2022-09-13T02:11:54.786Z,94384.88
2022-09-13T02:14:31.027Z,94382.13
2022-09-13T02:17:21.850Z,94363.69
2022-09-13T02:20:01.299Z,94382.84
2022-09-13T02:22:33.218Z,94376.50
2022-09-13T02:25:06.933Z,94404.13
2022-09-13T02:27:35.325Z,94388.69
2022-09-13T02:30:08.840Z,94370.06
2022-09-13T02:32:40.716Z,94379.56
2022-09-13T02:35:12.166Z,94377.63
2022-09-13T02:37:41.808Z,94392.03
2022-09-13T02:40:15.364Z,94383.94
2022-09-13T02:42:52.384Z,94394.13
2022-09-13T02:45:22.008Z,94391.75
2022-09-13T02:47:59.792Z,94385.50
2022-09-13T02:50:46.035Z,94399.63
2022-09-13T02:53:38.223Z,94398.06
2022-09-13T02:56:34.907Z,94404.03
2022-09-13T02:59:18.007Z,94401.25
2022-09-13T03:01:50.417Z,94397.88
2022-09-13T03:04:17.384Z,94400.09
2022-09-13T03:06:44.537Z,94408.16
2022-09-13T03:09:12.102Z,94403.38
2022-09-13T03:11:50.051Z,94405.00
2022-09-13T03:14:42.351Z,94394.72
2022-09-13T03:17:30.671Z,94395.41
2022-09-13T03:20:25.620Z,94392.41
2022-09-13T03:23:15.411Z,94389.19
2022-09-13T03:26:03.642Z,94388.81
2022-09-13T03:28:42.862Z,94380.19
2022-09-13T03:31:21.538Z,94399.53
2022-09-13T03:34:31.768Z,94390.47
2022-09-13T03:37:10.746Z,94397.16
2022-09-13T03:39:45.330Z,94394.94
2022-09-13T03:42:41.526Z,94404.19
2022-09-13T03:45:11.703Z,94399.47
2022-09-13T03:47:42.719Z,94390.06
2022-09-13T03:50:14.740Z,94380.50
2022-09-13T03:52:46.493Z,94378.31
2022-09-13T03:55:13.586Z,94377.00
2022-09-13T03:57:40.467Z,94376.59
2022-09-13T04:00:07.842Z,94376.44
2022-09-13T04:02:38.702Z,94380.78
2022-09-13T04:05:05.782Z,94382.72
2022-09-13T04:07:33.376Z,94379.31
2022-09-13T04:10:00.424Z,94384.31
2022-09-13T04:12:31.171Z,94391.94
2022-09-13T04:14:58.157Z,94391.94
2022-09-13T04:17:25.085Z,94391.81
2022-09-13T04:19:52.046Z,94390.28
2022-09-13T04:22:18.865Z,94373.97
2022-09-13T04:24:45.669Z,94403.00
2022-09-13T04:27:13.329Z,94399.03
2022-09-13T04:29:40.125Z,94413.00
2022-09-13T04:32:07.536Z,94394.66
2022-09-13T04:34:34.606Z,94404.75
2022-09-13T04:37:01.298Z,94372.06
2022-09-13T04:39:28.256Z,94390.41
2022-09-13T04:41:55.228Z,94385.22
2022-09-13T04:44:22.326Z,94384.88
2022-09-13T04:46:49.691Z,94387.28
2022-09-13T04:49:18.465Z,94391.03
2022-09-13T04:51:45.222Z,94401.66
2022-09-13T04:54:15.652Z,94383.25
2022-09-13T04:56:44.246Z,94397.13
2022-09-13T04:59:11.663Z,94396.25
2022-09-13T05:01:39.110Z,94400.75
2022-09-13T05:04:07.489Z,94415.66
2022-09-13T05:06:35.786Z,94415.75
2022-09-13T05:09:04.231Z,94408.16
2022-09-13T05:11:31.682Z,94414.00
2022-09-13T05:14:00.115Z,94418.44
2022-09-13T05:16:32.639Z,94421.06
2022-09-13T05:19:00.633Z,94423.31
2022-09-13T05:21:28.480Z,94419.72
2022-09-13T05:23:56.740Z,94400.97
2022-09-13T05:26:26.006Z,94403.28
2022-09-13T05:28:53.627Z,94398.88
2022-09-13T05:31:26.542Z,94391.66
2022-09-13T05:33:58.848Z,94390.00
2022-09-13T05:36:26.546Z,94391.22
2022-09-13T05:39:12.219Z,94384.94
2022-09-13T05:41:41.683Z,94406.03
2022-09-13T05:44:13.306Z,94410.69
2022-09-13T05:46:41.562Z,94419.94
2022-09-13T05:49:08.469Z,94419.59
2022-09-13T05:51:35.208Z,94432.31
2022-09-13T05:54:01.927Z,94418.84
2022-09-13T05:56:30.146Z,94395.13
2022-09-13T05:58:57.109Z,94381.84
2022-09-13T06:01:26.673Z,94364.78
2022-09-13T06:03:57.394Z,94399.50
2022-09-13T06:06:24.858Z,94422.91
2022-09-13T06:08:56.463Z,94403.00
2022-09-13T06:11:25.627Z,94416.84
2022-09-13T06:13:53.486Z,94418.63
2022-09-13T06:16:20.546Z,94418.34
2022-09-13T06:18:47.345Z,94419.94
2022-09-13T06:21:18.215Z,94426.63
2022-09-13T06:23:51.047Z,94418.28
2022-09-13T06:26:21.406Z,94415.91
2022-09-13T06:28:50.423Z,94408.31
2022-09-13T06:31:19.257Z,94417.16
2022-09-13T06:33:46.189Z,94406.88
2022-09-13T06:36:19.939Z,94410.72
2022-09-13T06:38:48.974Z,94425.25
2022-09-13T06:41:21.978Z,94421.69
2022-09-13T06:43:56.196Z,94423.81
2022-09-13T06:46:25.146Z,94437.50
2022-09-13T06:48:53.225Z,94425.56
2022-09-13T06:51:22.504Z,94426.91
2022-09-13T06:53:51.078Z,94390.16
2022-09-13T06:56:20.470Z,94357.16
2022-09-13T06:58:49.831Z,94395.28
2022-09-13T07:01:27.488Z,94419.25
2022-09-13T07:04:00.411Z,94410.59
2022-09-13T07:06:33.572Z,94426.47
2022-09-13T07:09:01.743Z,94393.25
2022-09-13T07:11:34.782Z,94402.78
2022-09-13T07:14:02.459Z,94410.25
2022-09-13T07:16:32.299Z,94410.06
2022-09-13T07:19:01.912Z,94403.06
2022-09-13T07:21:29.238Z,94366.53
2022-09-13T07:23:57.555Z,94398.13
2022-09-13T07:26:25.543Z,94398.13
2022-09-13T07:28:54.491Z,94396.81
2022-09-13T07:31:23.639Z,94366.09
2022-09-13T07:33:56.120Z,94405.03
2022-09-13T07:36:24.313Z,94411.72
2022-09-13T07:38:51.259Z,94401.25
2022-09-13T07:41:20.545Z,94416.41
2022-09-13T07:43:47.844Z,94381.56
2022-09-13T07:46:18.007Z,94394.09
2022-09-13T07:48:46.761Z,94388.81
2022-09-13T07:51:15.061Z,94398.31
2022-09-13T07:53:44.024Z,94414.91
2022-09-13T07:56:11.955Z,94413.38
2022-09-13T07:58:40.840Z,94426.28
2022-09-13T08:01:11.158Z,94433.91
2022-09-13T08:03:38.426Z,94418.94
2022-09-13T08:06:06.148Z,94403.16
2022-09-13T08:08:34.548Z,94397.31
2022-09-13T08:11:03.135Z,94409.75
2022-09-13T08:13:30.227Z,94431.16
2022-09-13T08:15:57.348Z,94393.59
2022-09-13T08:18:24.491Z,94421.97
2022-09-13T08:20:51.176Z,94405.59
2022-09-13T08:23:17.975Z,94397.47
2022-09-13T08:25:44.676Z,94426.41
2022-09-13T08:28:25.513Z,94409.44
2022-09-13T08:30:55.047Z,94459.25
2022-09-13T08:33:21.767Z,94437.13
2022-09-13T08:35:53.028Z,94464.56
2022-09-13T08:38:20.748Z,94462.78
2022-09-13T08:40:55.909Z,94424.69
2022-09-13T08:43:40.254Z,94403.16
2022-09-13T08:46:19.837Z,94432.16
2022-09-13T08:48:52.266Z,94448.47
2022-09-13T08:51:45.383Z,94389.56
2022-09-13T08:54:13.613Z,94439.59
2022-09-13T08:56:53.048Z,94465.94
2022-09-13T08:59:41.352Z,94422.84
2022-09-13T09:02:17.491Z,94469.91
2022-09-13T09:05:10.942Z,94419.28
2022-09-13T09:07:44.629Z,94419.28
2022-09-13T09:10:19.439Z,94438.19
2022-09-13T09:12:50.953Z,94443.69
2022-09-13T09:15:22.683Z,94456.09
2022-09-13T09:18:04.844Z,94438.47
2022-09-13T09:20:40.310Z,94413.34
2022-09-13T09:23:39.257Z,94435.22
2022-09-13T09:26:19.719Z,94432.09
2022-09-13T09:29:24.968Z,94398.50
2022-09-13T09:32:36.791Z,94395.75
2022-09-13T09:35:09.751Z,94411.81
2022-09-13T09:37:38.034Z,94395.81
2022-09-13T09:40:10.496Z,94420.47
2022-09-13T09:42:48.119Z,94420.69
2022-09-13T09:45:36.766Z,94433.88
2022-09-13T09:48:12.139Z,94381.47
2022-09-13T09:50:44.719Z,94441.22
2022-09-13T09:53:24.249Z,94437.38
2022-09-13T09:56:00.531Z,94422.94
2022-09-13T09:58:47.757Z,94439.97
2022-09-13T10:01:28.203Z,94439.13
2022-09-13T10:04:08.667Z,94432.75
2022-09-13T10:06:37.986Z,94419.22
2022-09-13T10:09:21.907Z,94429.88
2022-09-13T10:11:48.804Z,94412.19
2022-09-13T10:14:35.280Z,94421.31
2022-09-13T10:17:22.959Z,94406.84
2022-09-13T10:19:59.364Z,94440.38
2022-09-13T10:22:27.179Z,94398.66
2022-09-13T10:24:54.228Z,94388.53
2022-09-13T10:27:38.450Z,94382.53
2022-09-13T10:30:06.528Z,94420.28
2022-09-13T10:32:34.042Z,94402.03
2022-09-13T10:35:16.331Z,94403.38
2022-09-13T10:37:44.862Z,94393.06
2022-09-13T10:40:33.690Z,94383.53
2022-09-13T10:43:04.967Z,94394.06
2022-09-13T10:45:32.310Z,94390.19
2022-09-13T10:48:06.585Z,94403.44
2022-09-13T10:50:34.881Z,94386.06
2022-09-13T10:53:03.398Z,94370.16
2022-09-13T10:55:35.750Z,94398.00
2022-09-13T10:58:02.429Z,94390.81
2022-09-13T11:00:35.446Z,94364.34
2022-09-13T11:03:14.177Z,94389.78
2022-09-13T11:05:55.117Z,94391.56
2022-09-13T11:08:29.739Z,94366.63
2022-09-13T11:11:37.977Z,94373.50
2022-09-13T11:14:26.314Z,94393.59
2022-09-13T11:17:28.251Z,94380.66
2022-09-13T11:19:57.915Z,94352.06
2022-09-13T11:23:02.245Z,94346.81
2022-09-13T11:25:41.251Z,94349.66
2022-09-13T11:28:36.396Z,94351.19
2022-09-13T11:31:12.308Z,94364.69
2022-09-13T11:33:45.299Z,94359.81
2022-09-13T11:36:17.751Z,94367.75
2022-09-13T11:39:02.838Z,94360.63
2022-09-13T11:41:48.259Z,94368.28
2022-09-13T11:44:32.154Z,94383.00
2022-09-13T11:47:11.650Z,94377.72
2022-09-13T11:49:47.514Z,94376.25
2022-09-13T11:52:14.270Z,94356.03
2022-09-13T11:55:16.547Z,94380.00
2022-09-13T11:58:06.395Z,94379.09
2022-09-13T12:00:42.243Z,94356.53
2022-09-13T12:03:31.314Z,94379.97
2022-09-13T12:06:21.236Z,94370.16
2022-09-13T12:08:54.553Z,94371.28
2022-09-13T12:11:32.853Z,94372.47
2022-09-13T12:14:16.306Z,94320.03
2022-09-13T12:16:46.801Z,94341.34
2022-09-13T12:19:25.747Z,94349.97
2022-09-13T12:21:57.267Z,94354.50
2022-09-13T12:24:43.849Z,94350.19
2022-09-13T12:27:43.234Z,94308.44
2022-09-13T12:30:26.545Z,94345.91
2022-09-13T12:32:58.702Z,94298.53
2022-09-13T12:35:53.222Z,94321.84
2022-09-13T12:38:33.315Z,94315.69
2022-09-13T12:41:24.231Z,94303.84
2022-09-13T12:43:53.894Z,94313.38
2022-09-13T12:47:00.298Z,94314.75
2022-09-13T12:49:33.193Z,94282.91
2022-09-13T12:52:17.398Z,94278.66
2022-09-13T12:54:59.731Z,94300.28
2022-09-13T12:57:27.560Z,94294.66
2022-09-13T13:00:18.907Z,94330.00
2022-09-13T13:03:05.665Z,94331.34
2022-09-13T13:05:46.369Z,94336.59
2022-09-13T13:08:21.962Z,94337.41
2022-09-13T13:11:09.122Z,94314.81
2022-09-13T13:13:39.233Z,94349.13
2022-09-13T13:16:30.776Z,94340.25
2022-09-13T13:19:00.321Z,94334.72
2022-09-13T13:21:27.670Z,94350.47
2022-09-13T13:24:16.577Z,94350.25
2022-09-13T13:26:45.418Z,94341.00
2022-09-13T13:29:16.783Z,94339.19
2022-09-13T13:31:46.860Z,94312.03
2022-09-13T13:34:16.889Z,94308.09
2022-09-13T13:36:46.656Z,94322.16
2022-09-13T13:39:25.445Z,94307.06
2022-09-13T13:41:59.317Z,94308.47
2022-09-13T13:44:26.137Z,94329.28
2022-09-13T13:47:15.382Z,94305.16
2022-09-13T13:49:50.084Z,94296.44
2022-09-13T13:52:17.936Z,94284.22
2022-09-13T13:55:18.547Z,94279.41
2022-09-13T13:57:59.670Z,94300.38
2022-09-13T14:00:31.349Z,94302.56
2022-09-13T14:03:16.227Z,94308.28
2022-09-13T14:05:54.767Z,94280.78
2022-09-13T14:08:46.390Z,94283.53
2022-09-13T14:11:35.002Z,94286.94
2022-09-13T14:14:32.658Z,94276.16
2022-09-13T14:17:11.806Z,94277.00
2022-09-13T14:19:43.794Z,94281.16
2022-09-13T14:22:26.114Z,94295.16
2022-09-13T14:24:55.294Z,94297.56
2022-09-13T14:27:24.378Z,94248.34
2022-09-13T14:30:00.018Z,94255.44
2022-09-13T14:32:36.228Z,94257.34
2022-09-13T14:35:06.824Z,94255.50
2022-09-13T14:37:38.700Z,94252.59
2022-09-13T14:40:08.619Z,94260.06
2022-09-13T14:42:47.797Z,94221.16
2022-09-13T14:45:17.161Z,94224.94
2022-09-13T14:47:56.912Z,94207.16
2022-09-13T14:50:49.757Z,94197.53
2022-09-13T14:53:20.551Z,94195.88
2022-09-13T14:56:00.178Z,94219.63
2022-09-13T14:58:39.867Z,94196.16
2022-09-13T15:01:10.458Z,94179.56
2022-09-13T15:03:41.999Z,94179.16
2022-09-13T15:06:22.446Z,94203.91
2022-09-13T15:08:49.691Z,94185.50
2022-09-13T15:11:30.227Z,94189.06
2022-09-13T15:14:12.206Z,94184.66
2022-09-13T15:17:01.215Z,94179.22
2022-09-13T15:19:36.560Z,94160.72
2022-09-13T15:22:05.515Z,94149.94
2022-09-13T15:24:34.601Z,94163.38
2022-09-13T15:27:16.708Z,94173.25
2022-09-13T15:29:49.593Z,94157.16
2022-09-13T15:32:30.492Z,94139.06
2022-09-13T15:34:59.610Z,94132.63
2022-09-13T15:37:35.913Z,94143.16
2022-09-13T15:40:15.651Z,94142.53
2022-09-13T15:42:49.644Z,94151.09
2022-09-13T15:45:17.789Z,94145.38
2022-09-13T15:47:52.277Z,94145.97
2022-09-13T15:50:22.005Z,94150.75
2022-09-13T15:52:48.677Z,94154.50
2022-09-13T15:55:15.710Z,94146.91
2022-09-13T15:57:45.784Z,94148.44
2022-09-13T16:00:24.328Z,94147.06
2022-09-13T16:02:51.637Z,94152.00
2022-09-13T16:05:18.822Z,94119.72
2022-09-13T16:07:45.936Z,94140.63
2022-09-13T16:10:16.097Z,94137.97
2022-09-13T16:12:43.198Z,94107.22
2022-09-13T16:15:10.529Z,94132.19
2022-09-13T16:17:37.303Z,94129.25
2022-09-13T16:20:06.112Z,94126.47
2022-09-13T16:22:33.013Z,94135.44
2022-09-13T16:24:59.767Z,94116.28
2022-09-13T16:27:30.718Z,94125.59
2022-09-13T16:30:00.895Z,94120.09
2022-09-13T16:32:27.726Z,94104.78
2022-09-13T16:34:54.674Z,94119.66
2022-09-13T16:37:22.092Z,94123.56
2022-09-13T16:39:48.888Z,94104.03
2022-09-13T16:42:20.056Z,94120.28
2022-09-13T16:44:47.057Z,94114.84
2022-09-13T16:47:13.939Z,94108.84
2022-09-13T16:49:40.653Z,94106.53
2022-09-13T16:52:07.786Z,94114.66
2022-09-13T16:54:35.133Z,94125.78
2022-09-13T16:57:03.931Z,94110.13
2022-09-13T16:59:31.626Z,94113.06
2022-09-13T17:01:58.757Z,94136.91
2022-09-13T17:04:26.573Z,94131.34
2022-09-13T17:06:53.238Z,94112.78
2022-09-13T17:09:22.443Z,94113.22
2022-09-13T17:11:49.860Z,94111.91
2022-09-13T17:14:17.882Z,94136.78
2022-09-13T17:16:48.709Z,94127.13
2022-09-13T17:19:23.829Z,94136.38
2022-09-13T17:21:52.105Z,94135.84
2022-09-13T17:24:19.004Z,94132.91
2022-09-13T17:26:46.891Z,94128.25
2022-09-13T17:29:15.586Z,94129.84
2022-09-13T17:31:43.825Z,94127.25
2022-09-13T17:34:12.902Z,94137.03
2022-09-13T17:36:41.061Z,94142.66
2022-09-13T17:39:08.133Z,94144.19
2022-09-13T17:41:36.279Z,94134.97
2022-09-13T17:44:03.864Z,94132.75
2022-09-13T17:46:31.120Z,94151.75
2022-09-13T17:48:59.972Z,94112.25
2022-09-13T17:51:31.800Z,94107.50
2022-09-13T17:54:04.824Z,94116.53
2022-09-13T17:56:36.186Z,94125.47
2022-09-13T17:59:16.624Z,94107.66
2022-09-13T18:01:48.632Z,94140.66
2022-09-13T18:04:17.233Z,94127.22
2022-09-13T18:06:44.485Z,94112.13
2022-09-13T18:09:14.310Z,94109.72
2022-09-13T18:11:41.564Z,94101.97
2022-09-13T18:14:15.686Z,94116.63
2022-09-13T18:16:44.321Z,94116.19
2022-09-13T18:19:11.650Z,94115.59
2022-09-13T18:21:39.030Z,94115.31
2022-09-13T18:24:06.892Z,94117.03
2022-09-13T18:26:33.784Z,94116.00
2022-09-13T18:29:03.726Z,94113.06
2022-09-13T18:31:32.580Z,94120.25
2022-09-13T18:34:03.677Z,94114.69
2022-09-13T18:36:33.503Z,94103.34
2022-09-13T18:39:04.333Z,94115.94
2022-09-13T18:41:34.181Z,94119.00
2022-09-13T18:44:01.103Z,94136.06
2022-09-13T18:46:32.933Z,94125.91
2022-09-13T18:49:00.505Z,94125.63
2022-09-13T18:51:35.843Z,94113.09
2022-09-13T18:54:05.325Z,94122.97
2022-09-13T18:56:33.413Z,94128.69
2022-09-13T18:59:01.725Z,94141.59
2022-09-13T19:01:31.538Z,94103.53
2022-09-13T19:04:12.580Z,94138.84
2022-09-13T19:06:42.205Z,94140.69
2022-09-13T19:09:10.231Z,94117.53
2022-09-13T19:11:46.908Z,94101.72
2022-09-13T19:14:16.278Z,94114.91
2022-09-13T19:16:42.978Z,94121.06
2022-09-13T19:19:09.786Z,94141.75
2022-09-13T19:21:36.602Z,94126.19
2022-09-13T19:24:08.820Z,94096.34
2022-09-13T19:26:39.303Z,94126.19
2022-09-13T19:29:10.177Z,94114.47
2022-09-13T19:31:40.149Z,94120.31
2022-09-13T19:34:07.658Z,94093.06
2022-09-13T19:36:36.709Z,94105.16
2022-09-13T19:39:05.457Z,94087.09
2022-09-13T19:41:32.814Z,94088.75
2022-09-13T19:44:01.270Z,94097.59
2022-09-13T19:46:31.935Z,94082.94
2022-09-13T19:49:00.211Z,94082.28
2022-09-13T19:51:30.230Z,94094.78
2022-09-13T19:53:58.889Z,94091.63
2022-09-13T19:56:28.543Z,94102.16
2022-09-13T19:58:55.268Z,94091.13
2022-09-13T20:01:24.647Z,94078.13
2022-09-13T20:03:56.697Z,94081.75
2022-09-13T20:06:25.125Z,94061.72
2022-09-13T20:08:52.689Z,94089.28
2022-09-13T20:11:19.910Z,94077.81
2022-09-13T20:13:48.133Z,94081.06
2022-09-13T20:16:20.369Z,94092.13
2022-09-13T20:18:47.710Z,94060.31
2022-09-13T20:21:14.634Z,94058.41
2022-09-13T20:23:43.119Z,94076.38
2022-09-13T20:26:21.538Z,94068.00
2022-09-13T20:28:50.425Z,94077.03
2022-09-13T20:31:17.229Z,94088.13
2022-09-13T20:33:43.945Z,94083.72
2022-09-13T20:36:13.659Z,94071.56
2022-09-13T20:38:41.646Z,94070.81
2022-09-13T20:41:13.685Z,94041.84
2022-09-13T20:43:41.724Z,94023.50
2022-09-13T20:46:11.225Z,94023.84
2022-09-13T20:48:38.147Z,94066.09
2022-09-13T20:51:08.810Z,94034.16
2022-09-13T20:53:36.103Z,94055.72
2022-09-13T20:56:10.989Z,94035.72
2022-09-13T20:58:38.138Z,94035.03
2022-09-13T21:01:07.982Z,94039.88
2022-09-13T21:03:36.928Z,94048.91
2022-09-13T21:06:04.525Z,94010.19
2022-09-13T21:08:43.595Z,94019.19
2022-09-13T21:11:12.759Z,94034.75
2022-09-13T21:13:41.129Z,94061.34
2022-09-13T21:16:10.762Z,94041.56
2022-09-13T21:18:38.190Z,94026.13
2022-09-13T21:21:06.453Z,94030.13
2022-09-13T21:23:36.545Z,94038.06
2022-09-13T21:26:06.029Z,94048.97
2022-09-13T21:28:35.153Z,94033.00
2022-09-13T21:31:04.917Z,94027.47
2022-09-13T21:33:32.230Z,94044.22
2022-09-13T21:36:01.257Z,94057.09
2022-09-13T21:38:29.892Z,94041.41
2022-09-13T21:40:59.045Z,94041.56
2022-09-13T21:43:26.477Z,94010.44
2022-09-13T21:46:17.038Z,94031.69
2022-09-13T21:48:51.829Z,94052.94
2022-09-13T21:51:54.360Z,94058.72
2022-09-13T21:54:21.090Z,94047.34
2022-09-13T21:56:53.899Z,94043.41
2022-09-13T21:59:22.337Z,94057.63
2022-09-13T22:01:51.468Z,94034.66
2022-09-13T22:04:21.083Z,94045.13
2022-09-13T22:06:52.169Z,94039.72
2022-09-13T22:09:20.378Z,94067.66
2022-09-13T22:11:49.572Z,94066.03
2022-09-13T22:14:18.645Z,94088.84
2022-09-13T22:16:49.387Z,94102.44
2022-09-13T22:19:20.453Z,94101.53
2022-09-13T22:21:49.411Z,94088.19
2022-09-13T22:24:22.181Z,94051.31
2022-09-13T22:26:51.180Z,94020.44
2022-09-13T22:29:18.454Z,94024.75
2022-09-13T22:31:47.561Z,93993.28
2022-09-13T22:34:17.334Z,93999.19
2022-09-13T22:36:44.634Z,94034.78
2022-09-13T22:39:13.050Z,94051.38
2022-09-13T22:41:40.181Z,94061.69
2022-09-13T22:44:07.726Z,94055.13
2022-09-13T22:46:36.025Z,94000.72
2022-09-13T22:49:04.081Z,94043.56
2022-09-13T22:51:31.441Z,94065.66
2022-09-13T22:54:01.254Z,94057.91
2022-09-13T22:56:32.850Z,94046.97
2022-09-13T22:59:09.005Z,94014.44
2022-09-13T23:01:36.463Z,94044.25
2022-09-13T23:04:03.785Z,94053.78
2022-09-13T23:06:31.093Z,94040.84
2022-09-13T23:09:01.396Z,94032.94
2022-09-13T23:11:47.750Z,94060.81
2022-09-13T23:14:16.588Z,94054.94
2022-09-13T23:16:46.804Z,94063.69
2022-09-13T23:19:15.048Z,94060.72
2022-09-13T23:21:42.742Z,94067.97
2022-09-13T23:24:15.104Z,94042.63
2022-09-13T23:26:42.993Z,94051.47
2022-09-13T23:29:18.618Z,94056.31
2022-09-13T23:31:47.326Z,94049.50
2022-09-13T23:34:15.011Z,94039.78
2022-09-13T23:36:44.066Z,94040.28
2022-09-13T23:39:17.131Z,93992.63
2022-09-13T23:41:45.913Z,94046.91
2022-09-13T23:44:12.934Z,94058.16
2022-09-13T23:46:39.902Z,94064.53
2022-09-13T23:49:06.640Z,94044.00
2022-09-13T23:51:33.550Z,94019.13
2022-09-13T23:54:01.372Z,94025.03
2022-09-13T23:56:30.430Z,94021.25
2022-09-13T23:58:58.702Z,94034.09
